Grez-Doiceau, Belgium
Current Conditions -  °F | °C
As of 12:25 AM on Sunday 26 Oct 2014 (Local Time) from EBBE Reporting Station
Broken Clouds Broken Clouds  
Wind Chill: 52°   Ceiling: 4200
Heat Index: 52°   Visibility: 6mi
Dew Point: 50°   Wind: 6mph
Humidity: 94%   Direction: 210°SSW
Pressure: 30.21"   Gusts: NA
Location:  50.74°N, 4.7°E
Report Text: EBBE 252225Z AUTO 21005KT 9999 BKN042/// 11/10 Q1023 BLU
Loading
Personal Weather Stations






























Interactive Weather Map
Tropical Storm Tracking
New forecast layout! Learn more

10-Day Weather Forecast

Advertisements
Track Severe Weather on mobile